sensor_id;sensor_type;location;lat;lon;timestamp;pressure;altitude;pressure_sealevel;temperature;humidity
3832;BME280;12460;42.662;23.288;2023-05-19T00:08:47;94772.59;;;13.51;66.51
3832;BME280;12460;42.662;23.288;2023-05-19T00:23:53;94772.28;;;13.47;66.21
3832;BME280;12460;42.662;23.288;2023-05-19T00:38:57;94748.94;;;13.46;65.94
3832;BME280;12460;42.662;23.288;2023-05-19T00:54:03;94734.09;;;13.46;65.57
3832;BME280;12460;42.662;23.288;2023-05-19T01:09:08;94747.97;;;13.34;66.13
3832;BME280;12460;42.662;23.288;2023-05-19T01:39:25;94741.47;;;12.97;66.66
3832;BME280;12460;42.662;23.288;2023-05-19T01:54:29;94748.25;;;12.77;67.23
3832;BME280;12460;42.662;23.288;2023-05-19T02:09:52;94754.41;;;12.66;67.57
3832;BME280;12460;42.662;23.288;2023-05-19T02:25:01;94761.47;;;12.57;67.66
3832;BME280;12460;42.662;23.288;2023-05-19T02:40:08;94766.59;;;12.51;68.57
3832;BME280;12460;42.662;23.288;2023-05-19T02:55:12;94783.00;;;12.45;68.24
3832;BME280;12460;42.662;23.288;2023-05-19T03:10:19;94787.34;;;12.46;68.96
3832;BME280;12460;42.662;23.288;2023-05-19T03:25:24;94787.69;;;13.19;67.74
3832;BME280;12460;42.662;23.288;2023-05-19T03:40:28;94783.41;;;15.57;61.62
3832;BME280;12460;42.662;23.288;2023-05-19T03:55:40;94785.38;;;15.45;61.17
3832;BME280;12460;42.662;23.288;2023-05-19T04:10:44;94800.69;;;17.55;56.42
3832;BME280;12460;42.662;23.288;2023-05-19T04:25:49;94800.47;;;16.77;57.74
3832;BME280;12460;42.662;23.288;2023-05-19T04:40:52;94806.72;;;17.82;55.79
3832;BME280;12460;42.662;23.288;2023-05-19T04:55:58;94809.78;;;19.96;50.13
3832;BME280;12460;42.662;23.288;2023-05-19T05:11:07;94816.34;;;19.37;50.34
3832;BME280;12460;42.662;23.288;2023-05-19T05:26:16;94800.69;;;20.64;48.12
3832;BME280;12460;42.662;23.288;2023-05-19T05:41:23;94797.41;;;21.37;45.57
3832;BME280;12460;42.662;23.288;2023-05-19T05:56:29;94813.31;;;22.57;43.64
3832;BME280;12460;42.662;23.288;2023-05-19T06:11:34;94833.00;;;24.62;40.21
3832;BME280;12460;42.662;23.288;2023-05-19T06:26:40;94825.47;;;26.32;36.67
3832;BME280;12460;42.662;23.288;2023-05-19T06:41:45;94815.03;;;27.37;34.31
3832;BME280;12460;42.662;23.288;2023-05-19T06:57:10;94818.75;;;27.93;32.96
3832;BME280;12460;42.662;23.288;2023-05-19T07:12:15;94829.38;;;28.70;30.95
3832;BME280;12460;42.662;23.288;2023-05-19T07:27:21;94830.72;;;27.82;31.69
3832;BME280;12460;42.662;23.288;2023-05-19T07:42:26;94835.28;;;27.63;32.03
3832;BME280;12460;42.662;23.288;2023-05-19T07:57:31;94833.28;;;27.20;32.71
3832;BME280;12460;42.662;23.288;2023-05-19T08:12:36;94833.38;;;27.48;32.29
3832;BME280;12460;42.662;23.288;2023-05-19T08:27:41;94822.44;;;26.50;33.26
3832;BME280;12460;42.662;23.288;2023-05-19T08:42:46;94827.84;;;27.07;32.33
3832;BME280;12460;42.662;23.288;2023-05-19T08:57:51;94811.97;;;27.85;32.28
3832;BME280;12460;42.662;23.288;2023-05-19T09:12:56;94796.00;;;27.54;32.35
3832;BME280;12460;42.662;23.288;2023-05-19T09:27:59;94791.72;;;26.37;34.19
3832;BME280;12460;42.662;23.288;2023-05-19T09:43:06;94790.97;;;26.81;34.79
3832;BME280;12460;42.662;23.288;2023-05-19T09:58:15;94782.06;;;26.73;33.05
3832;BME280;12460;42.662;23.288;2023-05-19T10:13:21;94774.78;;;26.03;33.39
3832;BME280;12460;42.662;23.288;2023-05-19T10:28:34;94758.47;;;27.05;32.52
3832;BME280;12460;42.662;23.288;2023-05-19T10:43:49;94748.72;;;27.18;30.78
3832;BME280;12460;42.662;23.288;2023-05-19T10:58:58;94730.94;;;27.01;31.03
3832;BME280;12460;42.662;23.288;2023-05-19T11:14:06;94731.03;;;26.32;31.88
3832;BME280;12460;42.662;23.288;2023-05-19T11:29:12;94736.69;;;24.08;34.94
3832;BME280;12460;42.662;23.288;2023-05-19T11:44:17;94723.59;;;24.05;34.67
3832;BME280;12460;42.662;23.288;2023-05-19T11:59:33;94765.41;;;20.86;43.77
3832;BME280;12460;42.662;23.288;2023-05-19T12:14:39;94812.31;;;18.70;51.60
3832;BME280;12460;42.662;23.288;2023-05-19T12:29:48;94833.97;;;17.21;59.30
3832;BME280;12460;42.662;23.288;2023-05-19T12:44:55;94784.28;;;17.43;57.30
3832;BME280;12460;42.662;23.288;2023-05-19T13:00:16;94755.94;;;18.57;50.33
3832;BME280;12460;42.662;23.288;2023-05-19T13:15:26;94750.13;;;19.27;46.98
3832;BME280;12460;42.662;23.288;2023-05-19T13:30:35;94739.34;;;19.62;45.12
3832;BME280;12460;42.662;23.288;2023-05-19T13:45:41;94726.81;;;19.81;44.56
3832;BME280;12460;42.662;23.288;2023-05-19T14:00:47;94734.78;;;19.96;44.91
3832;BME280;12460;42.662;23.288;2023-05-19T14:15:54;94732.75;;;20.24;44.51
3832;BME280;12460;42.662;23.288;2023-05-19T14:30:59;94738.94;;;20.32;43.14
3832;BME280;12460;42.662;23.288;2023-05-19T14:46:05;94737.78;;;20.50;42.50
3832;BME280;12460;42.662;23.288;2023-05-19T15:01:09;94750.63;;;20.76;41.25
3832;BME280;12460;42.662;23.288;2023-05-19T15:16:13;94752.09;;;21.05;39.68
3832;BME280;12460;42.662;23.288;2023-05-19T15:31:20;94743.41;;;21.59;38.69
3832;BME280;12460;42.662;23.288;2023-05-19T15:46:25;94745.75;;;21.49;40.46
3832;BME280;12460;42.662;23.288;2023-05-19T16:01:29;94761.81;;;20.86;42.49
3832;BME280;12460;42.662;23.288;2023-05-19T16:16:33;94752.03;;;20.23;44.12
3832;BME280;12460;42.662;23.288;2023-05-19T16:31:38;94758.38;;;19.96;45.41
3832;BME280;12460;42.662;23.288;2023-05-19T16:46:43;94772.16;;;20.00;46.14
3832;BME280;12460;42.662;23.288;2023-05-19T17:01:48;94768.56;;;19.74;46.79
3832;BME280;12460;42.662;23.288;2023-05-19T17:16:53;94769.09;;;19.22;48.51
3832;BME280;12460;42.662;23.288;2023-05-19T17:31:58;94785.03;;;18.91;49.36
3832;BME280;12460;42.662;23.288;2023-05-19T17:47:02;94791.06;;;19.08;49.54
3832;BME280;12460;42.662;23.288;2023-05-19T18:02:08;94802.47;;;19.08;50.39
3832;BME280;12460;42.662;23.288;2023-05-19T18:17:13;94819.13;;;19.00;50.76
3832;BME280;12460;42.662;23.288;2023-05-19T18:32:18;94841.19;;;18.76;52.15
3832;BME280;12460;42.662;23.288;2023-05-19T18:47:22;94847.78;;;18.23;54.12
3832;BME280;12460;42.662;23.288;2023-05-19T19:02:27;94869.19;;;17.80;55.89
3832;BME280;12460;42.662;23.288;2023-05-19T19:17:32;94866.47;;;17.18;56.92
3832;BME280;12460;42.662;23.288;2023-05-19T19:32:36;94874.28;;;16.87;57.92
3832;BME280;12460;42.662;23.288;2023-05-19T19:47:41;94866.63;;;16.49;58.32
3832;BME280;12460;42.662;23.288;2023-05-19T20:02:45;94890.09;;;16.50;58.07
3832;BME280;12460;42.662;23.288;2023-05-19T20:18:06;94897.75;;;16.38;59.44
3832;BME280;12460;42.662;23.288;2023-05-19T20:33:11;94911.13;;;16.16;60.45
3832;BME280;12460;42.662;23.288;2023-05-19T20:48:16;94932.31;;;16.15;61.02
3832;BME280;12460;42.662;23.288;2023-05-19T21:03:20;94929.63;;;16.07;60.42
3832;BME280;12460;42.662;23.288;2023-05-19T21:18:25;94902.19;;;15.81;60.97
3832;BME280;12460;42.662;23.288;2023-05-19T21:33:31;94919.94;;;15.82;61.39
3832;BME280;12460;42.662;23.288;2023-05-19T21:48:36;94910.09;;;15.64;62.05
3832;BME280;12460;42.662;23.288;2023-05-19T22:03:41;94902.00;;;15.41;62.40
3832;BME280;12460;42.662;23.288;2023-05-19T22:18:46;94901.97;;;15.31;62.79
3832;BME280;12460;42.662;23.288;2023-05-19T22:33:51;94890.03;;;15.14;63.16
3832;BME280;12460;42.662;23.288;2023-05-19T22:48:55;94900.88;;;14.98;63.75
3832;BME280;12460;42.662;23.288;2023-05-19T23:04:00;94909.78;;;14.85;63.20
3832;BME280;12460;42.662;23.288;2023-05-19T23:19:05;94871.16;;;14.71;63.37
3832;BME280;12460;42.662;23.288;2023-05-19T23:34:10;94864.06;;;14.52;64.16
3832;BME280;12460;42.662;23.288;2023-05-19T23:49:14;94847.78;;;14.43;64.60
